Time;durP1;ratioP1;P1;durP2;ratioP2;P2;SDS_P1;SDS_P2;PMS_P1;PMS_P2;Temp;Humidity;BMP_temperature;BMP_pressure;BME280_temperature;BME280_humidity;BME280_pressure;Samples;Min_cycle;Max_cycle;Signal;HPM_P1;HPM_P2
2021/12/14 00:01:55;;;;;;;14.77;10.70;;;8.50;99.90;;;;;;5053989;28;20210;-70
2021/12/14 00:04:28;;;;;;;18.38;12.00;;;8.60;99.90;;;;;;5053275;28;20199;-70
2021/12/14 00:06:57;;;;;;;15.10;10.93;;;8.50;99.90;;;;;;5053682;28;20661;-70
2021/12/14 00:09:29;;;;;;;18.17;13.02;;;8.60;99.90;;;;;;5053421;28;20211;-69
2021/12/14 00:12:12;;;;;;;15.82;12.52;;;8.50;99.90;;;;;;5053475;28;20199;-68
2021/12/14 00:17:29;;;;;;;18.92;13.05;;;8.60;99.90;;;;;;5053791;28;20272;-70
2021/12/14 00:19:59;;;;;;;20.35;12.38;;;8.70;99.90;;;;;;5053472;28;20227;-68
2021/12/14 00:22:35;;;;;;;18.77;12.73;;;8.60;99.90;;;;;;5053340;28;20226;-69
2021/12/14 00:25:03;;;;;;;18.80;12.60;;;8.60;99.90;;;;;;5052960;28;20206;-69
2021/12/14 00:27:31;;;;;;;18.75;12.43;;;8.50;99.90;;;;;;5053255;28;20200;-68
2021/12/14 00:30:00;;;;;;;19.38;13.15;;;8.60;99.90;;;;;;5053046;28;20237;-69
2021/12/14 00:32:31;;;;;;;18.30;11.63;;;8.60;99.90;;;;;;5052756;28;20223;-68
2021/12/14 00:35:02;;;;;;;16.75;11.98;;;8.60;99.90;;;;;;5052652;28;20203;-69
2021/12/14 00:37:35;;;;;;;17.58;10.38;;;8.60;99.90;;;;;;5053159;28;20260;-68
2021/12/14 00:40:11;;;;;;;14.80;10.90;;;8.50;99.90;;;;;;5052755;28;20219;-68
2021/12/14 00:42:38;;;;;;;17.00;11.55;;;8.50;99.90;;;;;;5052645;28;20315;-69
2021/12/14 00:45:06;;;;;;;17.02;11.35;;;8.60;99.90;;;;;;5052365;28;20207;-70
2021/12/14 00:47:33;;;;;;;18.50;12.07;;;8.60;99.90;;;;;;5052771;28;20225;-69
2021/12/14 00:50:00;;;;;;;15.90;10.95;;;8.50;99.90;;;;;;5052432;28;20618;-68
2021/12/14 00:52:26;;;;;;;17.30;11.32;;;8.40;99.90;;;;;;5052614;28;20223;-68
2021/12/14 00:54:55;;;;;;;15.75;10.93;;;8.40;99.90;;;;;;5052190;28;20207;-68
2021/12/14 00:57:22;;;;;;;15.45;11.93;;;8.50;99.90;;;;;;5052606;28;20557;-70
2021/12/14 00:59:49;;;;;;;16.80;12.00;;;8.50;99.90;;;;;;5051611;28;20219;-69
2021/12/14 01:02:21;;;;;;;15.95;11.75;;;8.60;99.90;;;;;;5052428;28;20704;-70
2021/12/14 01:04:51;;;;;;;16.17;11.88;;;8.50;99.90;;;;;;5052117;28;20214;-70
2021/12/14 01:07:21;;;;;;;16.35;10.80;;;8.50;99.90;;;;;;5054220;28;20716;-71
2021/12/14 01:09:51;;;;;;;16.48;11.90;;;8.40;99.90;;;;;;5054147;28;20290;-70
2021/12/14 01:12:32;;;;;;;17.48;11.10;;;8.40;99.90;;;;;;5053869;28;20227;-70
2021/12/14 01:15:22;;;;;;;16.10;10.73;;;8.50;99.90;;;;;;5054115;28;20282;-70
2021/12/14 01:18:01;;;;;;;18.40;11.13;;;8.50;99.90;;;;;;5053691;28;20210;-70
2021/12/14 01:20:35;;;;;;;12.77;9.57;;;8.50;99.90;;;;;;5054019;28;20281;-69
2021/12/14 01:23:12;;;;;;;12.45;9.80;;;8.60;99.90;;;;;;5054015;28;20745;-70
2021/12/14 01:25:40;;;;;;;16.15;10.68;;;8.60;99.90;;;;;;5053848;28;20207;-70
2021/12/14 01:28:11;;;;;;;15.77;10.18;;;8.60;99.90;;;;;;5054340;28;20290;-70
2021/12/14 01:30:52;;;;;;;14.80;10.30;;;8.50;99.90;;;;;;5053474;28;20627;-70
2021/12/14 01:33:21;;;;;;;14.40;10.27;;;8.50;99.90;;;;;;5053808;28;20227;-70
2021/12/14 01:35:49;;;;;;;16.70;10.80;;;8.50;99.90;;;;;;5054194;28;20298;-70
2021/12/14 01:38:31;;;;;;;14.85;9.70;;;8.40;99.90;;;;;;5054327;28;20208;-70
2021/12/14 01:41:03;;;;;;;16.55;10.40;;;8.30;99.90;;;;;;5054303;28;20308;-70
2021/12/14 01:43:37;;;;;;;12.32;8.98;;;8.30;99.90;;;;;;5053870;28;20227;-70
2021/12/14 01:46:10;;;;;;;11.43;8.75;;;8.20;99.90;;;;;;5053618;28;20293;-70
2021/12/14 01:48:38;;;;;;;11.63;8.65;;;8.20;99.90;;;;;;5053743;28;20578;-70
2021/12/14 01:51:07;;;;;;;15.65;9.00;;;8.20;99.90;;;;;;5053839;28;20196;-70
2021/12/14 01:53:34;;;;;;;13.05;8.60;;;8.20;99.90;;;;;;5053230;28;20250;-69
2021/12/14 01:56:05;;;;;;;13.45;9.30;;;8.20;99.90;;;;;;5053506;28;20285;-69
2021/12/14 01:58:40;;;;;;;15.27;8.40;;;8.20;99.90;;;;;;5053400;28;20221;-70
2021/12/14 02:01:12;;;;;;;14.63;8.63;;;8.30;99.90;;;;;;5053934;28;20229;-70
2021/12/14 02:03:44;;;;;;;13.25;8.38;;;8.20;99.90;;;;;;5053515;28;20280;-70
2021/12/14 02:06:16;;;;;;;15.57;9.07;;;8.30;99.90;;;;;;5053083;28;20204;-70
2021/12/14 02:08:44;;;;;;;16.48;9.95;;;8.30;99.90;;;;;;5053289;28;20557;-70
2021/12/14 02:11:11;;;;;;;17.48;10.40;;;8.30;99.90;;;;;;5056096;28;20298;-70
2021/12/14 02:13:42;;;;;;;11.93;9.07;;;8.30;99.90;;;;;;5057871;28;20230;-69
2021/12/14 02:16:12;;;;;;;13.77;8.90;;;8.30;99.90;;;;;;5056654;28;20203;-69
2021/12/14 02:18:44;;;;;;;13.20;8.63;;;8.30;99.90;;;;;;5057412;28;20195;-70
2021/12/14 02:21:14;;;;;;;15.45;9.38;;;8.30;99.90;;;;;;5057310;28;20627;-69
2021/12/14 02:23:44;;;;;;;16.45;10.27;;;8.30;99.90;;;;;;5057369;28;20227;-70
2021/12/14 02:26:15;;;;;;;18.30;10.88;;;8.30;99.90;;;;;;5056646;28;20715;-69
2021/12/14 02:28:42;;;;;;;20.92;10.85;;;8.20;99.90;;;;;;5057181;28;20210;-70
2021/12/14 02:31:12;;;;;;;20.00;11.88;;;8.10;99.90;;;;;;5056867;28;20199;-70
2021/12/14 02:33:40;;;;;;;19.33;11.18;;;8.10;99.90;;;;;;5057422;28;20238;-70
2021/12/14 02:36:10;;;;;;;18.92;10.63;;;8.00;99.90;;;;;;5056386;28;20199;-70
2021/12/14 02:38:42;;;;;;;18.05;10.90;;;8.00;99.90;;;;;;5056737;28;20642;-69
2021/12/14 02:41:10;;;;;;;17.80;10.13;;;7.90;99.90;;;;;;5056852;28;20227;-70
2021/12/14 02:43:40;;;;;;;15.40;10.02;;;7.80;99.90;;;;;;5056392;28;20234;-70
2021/12/14 02:46:12;;;;;;;15.65;10.02;;;7.80;99.90;;;;;;5056468;28;20207;-70
2021/12/14 02:48:42;;;;;;;16.77;10.13;;;7.80;99.90;;;;;;5056665;28;20210;-69
2021/12/14 02:51:12;;;;;;;15.85;11.13;;;7.90;99.90;;;;;;5056752;28;20203;-69
2021/12/14 02:53:42;;;;;;;16.40;10.88;;;7.90;99.90;;;;;;5056026;28;20257;-69
2021/12/14 02:56:14;;;;;;;18.33;10.35;;;8.00;99.90;;;;;;5056189;28;20640;-69
2021/12/14 02:58:42;;;;;;;17.23;10.95;;;8.00;99.90;;;;;;5056177;28;20229;-70
2021/12/14 03:01:10;;;;;;;15.90;9.57;;;8.00;99.90;;;;;;5056286;28;20226;-69
2021/12/14 03:03:37;;;;;;;18.10;9.48;;;7.90;99.90;;;;;;5056762;28;20230;-70
2021/12/14 03:06:07;;;;;;;16.42;9.55;;;7.80;99.90;;;;;;5055498;28;20569;-70
2021/12/14 03:08:43;;;;;;;16.45;9.98;;;7.90;99.90;;;;;;5055835;28;20270;-70
2021/12/14 03:11:13;;;;;;;16.38;9.82;;;7.90;99.90;;;;;;5056183;28;20195;-70
2021/12/14 03:13:44;;;;;;;15.88;10.07;;;8.00;99.90;;;;;;5056080;28;20704;-69
2021/12/14 03:16:15;;;;;;;17.73;10.23;;;8.00;99.90;;;;;;5056042;28;20203;-70
2021/12/14 03:18:45;;;;;;;15.73;9.98;;;8.00;99.90;;;;;;5056177;28;20661;-70
2021/12/14 03:21:15;;;;;;;17.55;10.00;;;8.10;99.90;;;;;;5055245;28;20580;-70
2021/12/14 03:23:45;;;;;;;17.20;9.98;;;8.00;99.90;;;;;;5055778;28;20233;-70
2021/12/14 03:26:16;;;;;;;14.75;9.35;;;8.10;99.90;;;;;;5055922;28;20302;-70
2021/12/14 03:28:46;;;;;;;15.80;9.68;;;8.10;99.90;;;;;;5056120;28;20225;-70
2021/12/14 03:31:24;;;;;;;13.15;8.80;;;8.10;99.90;;;;;;5055965;28;20204;-70
2021/12/14 03:33:54;;;;;;;15.27;8.77;;;8.10;99.90;;;;;;5055678;28;20234;-70
2021/12/14 03:36:24;;;;;;;15.75;8.45;;;8.10;99.90;;;;;;5055385;28;20245;-70
2021/12/14 03:38:54;;;;;;;16.15;8.95;;;8.10;99.90;;;;;;5055652;28;20379;-70
2021/12/14 03:41:25;;;;;;;15.43;8.82;;;8.00;99.90;;;;;;5055668;28;20230;-69
2021/12/14 03:43:57;;;;;;;12.65;7.75;;;8.10;99.90;;;;;;5055370;28;20233;-70
2021/12/14 03:46:25;;;;;;;12.43;8.10;;;8.10;99.90;;;;;;5055312;28;20558;-69
2021/12/14 03:48:52;;;;;;;16.23;10.13;;;8.10;99.90;;;;;;5055591;28;20211;-70
2021/12/14 03:51:21;;;;;;;18.58;10.57;;;8.10;99.90;;;;;;5055614;28;20728;-69
2021/12/14 03:53:50;;;;;;;14.55;9.85;;;8.20;99.90;;;;;;5054909;28;20223;-69
2021/12/14 03:56:17;;;;;;;14.93;8.27;;;8.20;99.90;;;;;;5054815;28;20206;-69
2021/12/14 03:58:46;;;;;;;14.95;9.05;;;8.20;99.90;;;;;;5055063;28;20215;-70
2021/12/14 04:01:16;;;;;;;14.63;8.65;;;8.10;99.90;;;;;;5055267;28;20238;-70
2021/12/14 04:03:46;;;;;;;15.57;10.05;;;8.10;99.90;;;;;;5055459;28;20224;-69
2021/12/14 04:06:13;;;;;;;15.82;9.35;;;8.10;99.90;;;;;;5055257;28;20206;-69
2021/12/14 04:08:40;;;;;;;14.60;8.30;;;8.10;99.90;;;;;;5055426;28;20214;-70
2021/12/14 04:11:10;;;;;;;14.77;9.00;;;8.00;99.90;;;;;;5054788;28;20206;-69
2021/12/14 04:13:39;;;;;;;16.85;8.75;;;7.80;99.90;;;;;;5054917;28;20234;-69
2021/12/14 04:16:09;;;;;;;14.05;8.85;;;7.80;99.90;;;;;;5054760;28;20290;-69
2021/12/14 04:18:36;;;;;;;16.08;8.65;;;7.80;99.90;;;;;;5055028;28;20210;-69
2021/12/14 04:21:04;;;;;;;15.13;9.70;;;7.70;99.90;;;;;;5054911;28;20219;-69
2021/12/14 04:23:34;;;;;;;16.75;9.43;;;7.70;99.90;;;;;;5054698;28;20230;-70
2021/12/14 04:26:03;;;;;;;15.07;8.75;;;7.80;99.90;;;;;;5054093;28;20688;-69
2021/12/14 04:28:35;;;;;;;15.65;9.15;;;7.80;99.90;;;;;;5054707;28;20199;-69
2021/12/14 04:31:03;;;;;;;14.45;7.93;;;7.90;99.90;;;;;;5054843;28;20214;-69
2021/12/14 04:33:35;;;;;;;14.68;9.00;;;7.90;99.90;;;;;;5054190;28;20227;-69
2021/12/14 04:36:06;;;;;;;16.98;9.48;;;7.90;99.90;;;;;;5054423;28;20635;-69
2021/12/14 04:38:38;;;;;;;13.38;7.85;;;7.90;99.90;;;;;;5054295;28;20199;-69
2021/12/14 04:52:16;;;;;;;17.23;10.90;;;7.80;99.90;;;;;;5054382;28;20249;-69
2021/12/14 04:54:47;;;;;;;15.85;9.15;;;7.80;99.90;;;;;;5054255;28;20199;-69
2021/12/14 04:57:20;;;;;;;13.68;8.82;;;7.90;99.90;;;;;;5053830;28;20294;-69
2021/12/14 04:59:48;;;;;;;15.30;8.50;;;7.90;99.90;;;;;;5053914;28;20207;-70
2021/12/14 05:02:19;;;;;;;16.55;9.98;;;7.90;99.90;;;;;;5054086;28;20231;-69
2021/12/14 05:04:50;;;;;;;16.45;9.63;;;7.80;99.90;;;;;;5054262;28;20188;-69
2021/12/14 05:07:47;;;;;;;14.98;9.10;;;7.70;99.90;;;;;;5054199;28;20199;-69
2021/12/14 05:10:18;;;;;;;15.75;9.38;;;7.60;99.90;;;;;;5053458;28;20669;-69
2021/12/14 05:12:47;;;;;;;16.38;9.30;;;7.60;99.90;;;;;;5053984;28;20215;-69
2021/12/14 05:15:16;;;;;;;19.15;11.00;;;7.50;99.90;;;;;;5053971;28;20203;-69
2021/12/14 05:17:45;;;;;;;15.15;9.65;;;7.60;99.90;;;;;;5053480;28;20199;-69
2021/12/14 05:20:16;;;;;;;16.92;9.20;;;7.50;99.90;;;;;;5053700;28;20213;-69
2021/12/14 05:22:45;;;;;;;16.83;9.15;;;7.30;99.90;;;;;;5053336;28;20251;-69
2021/12/14 05:25:25;;;;;;;14.77;8.32;;;7.40;99.90;;;;;;5053694;28;20265;-69
2021/12/14 05:27:56;;;;;;;14.15;8.30;;;7.60;99.90;;;;;;5054062;28;20207;-69
2021/12/14 05:30:27;;;;;;;11.57;8.10;;;7.70;99.90;;;;;;5053378;28;20630;-69
2021/12/14 05:32:59;;;;;;;15.00;8.50;;;7.60;99.90;;;;;;5053485;28;20716;-69
2021/12/14 05:35:27;;;;;;;13.20;7.88;;;7.60;99.90;;;;;;5053614;28;20203;-69
2021/12/14 05:37:56;;;;;;;15.55;9.50;;;7.50;99.90;;;;;;5053800;28;20554;-69
2021/12/14 05:40:41;;;;;;;16.83;9.20;;;7.30;99.90;;;;;;5053793;28;20573;-69
2021/12/14 05:43:10;;;;;;;18.52;9.30;;;7.20;99.90;;;;;;5053595;28;20259;-69
2021/12/14 05:45:42;;;;;;;16.10;9.27;;;7.30;99.90;;;;;;5055458;28;20203;-69
2021/12/14 05:48:11;;;;;;;16.15;9.15;;;7.10;99.90;;;;;;5057791;28;20213;-69
2021/12/14 05:50:42;;;;;;;20.58;10.27;;;6.90;99.90;;;;;;5057865;28;20195;-69
2021/12/14 05:53:11;;;;;;;18.48;9.20;;;6.90;99.90;;;;;;5057304;28;20249;-70
2021/12/14 05:55:41;;;;;;;17.50;10.35;;;6.90;99.90;;;;;;5057051;28;20294;-70
2021/12/14 05:58:15;;;;;;;18.10;9.73;;;7.00;99.90;;;;;;5057214;28;20405;-69
2021/12/14 06:00:45;;;;;;;15.55;8.70;;;7.00;99.90;;;;;;5057478;28;20235;-69
2021/12/14 06:03:18;;;;;;;18.10;9.20;;;7.10;99.90;;;;;;5057174;28;20589;-70
2021/12/14 06:05:46;;;;;;;16.63;8.80;;;7.10;99.90;;;;;;5057083;28;20246;-70
2021/12/14 06:08:20;;;;;;;13.30;7.82;;;7.10;99.90;;;;;;5057224;28;20211;-69
2021/12/14 06:10:47;;;;;;;14.77;8.48;;;7.20;99.90;;;;;;5057180;28;20199;-69
2021/12/14 06:13:17;;;;;;;10.90;7.53;;;7.30;99.90;;;;;;5056830;28;20220;-69
2021/12/14 06:15:43;;;;;;;14.77;9.10;;;7.40;99.90;;;;;;5056691;28;20229;-69
2021/12/14 06:18:11;;;;;;;15.50;7.88;;;7.40;99.90;;;;;;5056720;28;20210;-70
2021/12/14 06:20:38;;;;;;;14.88;7.80;;;7.40;99.90;;;;;;5056723;28;20223;-70
2021/12/14 06:23:06;;;;;;;11.35;7.53;;;7.40;99.90;;;;;;5057171;28;20226;-70
2021/12/14 06:25:33;;;;;;;10.70;6.88;;;7.50;99.90;;;;;;5056360;28;20298;-69
2021/12/14 06:28:01;;;;;;;11.63;7.30;;;7.50;99.90;;;;;;5057088;28;20203;-69
2021/12/14 06:30:30;;;;;;;9.05;5.80;;;7.50;99.90;;;;;;5057062;28;20234;-70
2021/12/14 06:33:01;;;;;;;10.23;7.10;;;7.40;99.90;;;;;;5056411;28;20229;-69
2021/12/14 06:35:32;;;;;;;14.38;6.90;;;7.30;99.90;;;;;;5056438;28;20203;-70
2021/12/14 06:38:27;;;;;;;10.32;6.90;;;7.20;99.90;;;;;;5056754;28;20250;-69
2021/12/14 06:41:02;;;;;;;9.82;6.40;;;7.10;99.90;;;;;;5056920;28;20226;-69
2021/12/14 06:43:32;;;;;;;12.95;7.68;;;7.00;99.90;;;;;;5056352;28;20696;-69
2021/12/14 06:46:03;;;;;;;14.10;8.02;;;7.00;99.90;;;;;;5056570;28;20203;-70
2021/12/14 06:48:33;;;;;;;14.15;8.65;;;7.10;99.90;;;;;;5056819;28;20214;-69
2021/12/14 06:51:04;;;;;;;13.60;8.65;;;7.10;99.90;;;;;;5056959;28;20680;-69
2021/12/14 06:53:33;;;;;;;15.68;9.13;;;7.20;99.90;;;;;;5056852;28;20223;-70
2021/12/14 06:56:03;;;;;;;15.32;8.73;;;7.20;99.90;;;;;;5055713;28;20299;-69
2021/12/14 06:58:32;;;;;;;15.57;8.90;;;7.20;99.90;;;;;;5064121;28;20210;-70
2021/12/14 07:01:04;;;;;;;13.32;8.40;;;7.30;99.90;;;;;;5055183;28;20262;-70
2021/12/14 07:03:46;;;;;;;11.40;7.53;;;7.20;99.90;;;;;;5055209;28;20231;-71
2021/12/14 07:06:23;;;;;;;12.07;8.00;;;7.20;99.90;;;;;;5055056;28;20214;-71
2021/12/14 07:08:51;;;;;;;12.52;7.85;;;7.20;99.90;;;;;;5054845;28;20207;-70
2021/12/14 07:11:20;;;;;;;12.35;8.32;;;7.10;99.90;;;;;;5054610;28;20290;-70
2021/12/14 07:13:48;;;;;;;13.98;8.57;;;6.90;99.90;;;;;;5054697;28;20254;-69
2021/12/14 07:16:21;;;;;;;10.75;7.63;;;6.80;99.90;;;;;;5054545;28;20639;-71
2021/12/14 07:18:53;;;;;;;10.95;7.80;;;6.80;99.90;;;;;;5054563;28;20203;-70
2021/12/14 07:21:39;;;;;;;13.45;7.82;;;6.60;99.90;;;;;;5054204;28;20222;-71
2021/12/14 07:24:31;;;;;;;15.60;7.93;;;6.70;99.90;;;;;;5054381;28;20245;-71
2021/12/14 07:27:22;;;;;;;13.23;8.52;;;6.80;99.90;;;;;;5054624;28;20192;-70
2021/12/14 07:29:49;;;;;;;12.07;7.40;;;6.80;99.90;;;;;;5054027;28;20199;-69
2021/12/14 07:32:43;;;;;;;11.95;7.90;;;6.70;99.90;;;;;;5054108;28;20220;-71
2021/12/14 07:35:33;;;;;;;13.18;8.40;;;6.70;99.90;;;;;;5048782;28;20213;-68
2021/12/14 07:38:05;;;;;;;14.50;8.77;;;6.80;99.90;;;;;;5054406;28;20235;-69
2021/12/14 07:40:38;;;;;;;12.60;8.13;;;6.80;99.90;;;;;;5054055;28;20210;-69
2021/12/14 07:43:13;;;;;;;11.07;7.78;;;7.00;99.90;;;;;;5053858;28;20263;-68
2021/12/14 07:45:41;;;;;;;8.90;6.88;;;7.10;99.90;;;;;;5054187;28;20221;-69
2021/12/14 07:48:08;;;;;;;9.55;6.40;;;7.20;99.90;;;;;;5054438;28;20200;-70
2021/12/14 07:50:46;;;;;;;9.10;6.85;;;7.20;99.90;;;;;;5054309;28;20199;-70
2021/12/14 07:53:13;;;;;;;8.65;6.28;;;7.00;99.90;;;;;;5053833;28;20314;-69
2021/12/14 07:55:44;;;;;;;10.05;6.85;;;6.90;99.90;;;;;;5053740;28;20214;-70
2021/12/14 07:58:11;;;;;;;8.50;6.30;;;6.80;99.90;;;;;;5054687;28;20580;-69
2021/12/14 08:00:42;;;;;;;7.75;6.22;;;6.80;99.90;;;;;;5055117;28;20250;-70
2021/12/14 08:03:10;;;;;;;10.50;6.45;;;6.90;99.90;;;;;;5055020;28;20239;-69
2021/12/14 08:05:40;;;;;;;9.20;6.50;;;6.90;99.90;;;;;;5054619;28;20572;-69
2021/12/14 08:08:15;;;;;;;11.73;7.43;;;6.90;99.90;;;;;;5054921;28;20550;-69
2021/12/14 08:10:49;;;;;;;11.35;7.72;;;6.80;99.90;;;;;;5054802;28;20187;-69
2021/12/14 08:13:18;;;;;;;11.30;7.95;;;6.80;99.90;;;;;;5055044;28;20224;-69
2021/12/14 08:15:50;;;;;;;12.95;8.70;;;6.90;99.90;;;;;;5054651;28;20684;-69
2021/12/14 08:18:20;;;;;;;11.13;7.70;;;6.90;99.90;;;;;;5054652;28;20219;-69
2021/12/14 08:20:52;;;;;;;12.27;8.40;;;7.00;99.90;;;;;;5054598;28;20204;-69
2021/12/14 08:23:22;;;;;;;11.63;7.93;;;7.00;99.90;;;;;;5054665;28;20222;-69
2021/12/14 08:25:52;;;;;;;14.80;10.07;;;7.20;99.90;;;;;;5054351;28;20210;-69
2021/12/14 08:28:22;;;;;;;15.07;9.70;;;7.10;99.90;;;;;;5054505;28;20572;-69
2021/12/14 08:31:00;;;;;;;14.40;8.85;;;7.00;99.90;;;;;;5054654;28;20680;-69
2021/12/14 08:33:31;;;;;;;13.00;9.35;;;7.10;99.90;;;;;;5054422;28;20671;-69
2021/12/14 08:36:01;;;;;;;10.02;7.90;;;7.20;99.90;;;;;;5054393;28;20203;-69
2021/12/14 08:38:31;;;;;;;10.82;7.55;;;7.10;99.90;;;;;;5054537;28;20290;-69
2021/12/14 08:41:11;;;;;;;11.30;9.50;;;7.10;99.90;;;;;;5054324;28;20203;-69
2021/12/14 08:43:46;;;;;;;15.05;10.15;;;7.10;99.90;;;;;;5054725;28;20251;-69
2021/12/14 08:46:16;;;;;;;12.68;9.52;;;7.10;99.90;;;;;;5054261;28;20203;-69
2021/12/14 08:48:47;;;;;;;10.90;7.70;;;7.10;99.90;;;;;;5054088;28;20310;-69
2021/12/14 08:51:17;;;;;;;10.13;7.55;;;7.00;99.90;;;;;;5054444;28;20207;-69
2021/12/14 08:53:46;;;;;;;10.00;7.32;;;7.20;99.90;;;;;;5054692;28;20258;-69
2021/12/14 08:56:17;;;;;;;9.57;7.40;;;7.30;99.90;;;;;;5053717;28;20239;-69
2021/12/14 08:58:45;;;;;;;9.65;7.68;;;7.30;99.90;;;;;;5053817;28;20218;-69
2021/12/14 09:01:16;;;;;;;13.45;9.32;;;7.30;99.90;;;;;;5053885;28;20199;-69
2021/12/14 09:03:48;;;;;;;12.20;8.75;;;7.30;99.90;;;;;;5054382;28;20245;-69
2021/12/14 09:06:23;;;;;;;12.23;8.45;;;7.30;99.90;;;;;;5054125;28;20263;-69
2021/12/14 09:08:51;;;;;;;9.38;7.05;;;7.40;99.90;;;;;;5054270;28;20289;-69
2021/12/14 09:11:23;;;;;;;14.02;8.70;;;7.30;99.90;;;;;;5053823;28;20199;-69
2021/12/14 09:13:50;;;;;;;10.05;7.78;;;7.30;99.90;;;;;;5053940;28;20634;-69
2021/12/14 09:16:21;;;;;;;9.68;8.15;;;7.40;99.90;;;;;;5054063;28;20294;-69
2021/12/14 09:18:52;;;;;;;10.50;7.82;;;7.40;99.90;;;;;;5054352;28;20235;-69
2021/12/14 09:21:22;;;;;;;12.00;8.82;;;7.60;99.90;;;;;;5054131;28;20207;-69
2021/12/14 09:23:52;;;;;;;11.70;8.50;;;7.60;99.90;;;;;;5054031;28;20227;-69
2021/12/14 09:26:23;;;;;;;11.48;8.93;;;7.60;99.90;;;;;;5053708;28;20219;-69
2021/12/14 09:28:51;;;;;;;11.65;8.00;;;7.50;99.90;;;;;;5054171;28;20207;-69
2021/12/14 09:31:22;;;;;;;11.38;8.93;;;7.40;99.90;;;;;;5053533;28;20199;-69
2021/12/14 09:33:49;;;;;;;10.48;8.20;;;7.30;99.90;;;;;;5053623;28;20310;-69
2021/12/14 09:36:17;;;;;;;12.93;7.68;;;7.50;99.90;;;;;;5053882;28;20294;-69
2021/12/14 09:38:46;;;;;;;11.68;8.40;;;7.60;99.90;;;;;;5054200;28;20214;-69
2021/12/14 09:41:17;;;;;;;11.00;7.85;;;7.70;99.90;;;;;;5053792;28;20206;-69
2021/12/14 09:43:47;;;;;;;11.43;8.23;;;7.90;99.90;;;;;;5054282;28;20229;-69
2021/12/14 09:46:15;;;;;;;11.05;7.57;;;8.00;99.90;;;;;;5053416;28;20269;-69
2021/12/14 09:48:49;;;;;;;11.05;8.05;;;8.20;99.90;;;;;;5053817;28;20209;-69
2021/12/14 09:51:19;;;;;;;10.30;8.10;;;8.30;99.90;;;;;;5053966;28;20213;-69
2021/12/14 09:53:49;;;;;;;10.63;8.77;;;8.40;99.90;;;;;;5053736;28;20772;-69
2021/12/14 09:56:19;;;;;;;12.55;8.30;;;8.60;99.90;;;;;;5054006;28;20302;-69
2021/12/14 09:58:58;;;;;;;10.93;8.18;;;8.50;99.90;;;;;;5053819;28;20222;-69
2021/12/14 10:01:30;;;;;;;9.43;8.40;;;8.60;99.90;;;;;;5053973;28;20203;-69
2021/12/14 10:04:05;;;;;;;10.77;8.32;;;8.50;99.90;;;;;;5053475;28;20219;-69
2021/12/14 10:06:33;;;;;;;10.80;8.10;;;8.50;99.90;;;;;;5053450;28;20548;-69
2021/12/14 10:09:05;;;;;;;10.90;7.82;;;8.50;99.90;;;;;;5053515;28;20210;-69
2021/12/14 10:11:47;;;;;;;9.27;7.35;;;8.70;99.90;;;;;;5053240;28;20311;-69
2021/12/14 10:14:17;;;;;;;10.48;8.10;;;8.70;99.90;;;;;;5053425;28;20227;-69
2021/12/14 10:16:45;;;;;;;9.57;8.48;;;8.90;99.90;;;;;;5053202;28;20294;-69
2021/12/14 10:19:16;;;;;;;11.00;8.38;;;8.80;99.90;;;;;;5053705;28;20290;-69
2021/12/14 10:21:46;;;;;;;11.00;8.98;;;8.90;99.90;;;;;;5054195;28;20542;-69
2021/12/14 10:24:14;;;;;;;11.13;8.52;;;8.70;99.90;;;;;;5053808;28;20220;-69
2021/12/14 10:26:44;;;;;;;9.73;8.15;;;8.60;99.90;;;;;;5053533;28;20206;-69
2021/12/14 10:29:11;;;;;;;11.73;8.65;;;8.50;99.90;;;;;;5053971;28;20210;-69
2021/12/14 10:31:44;;;;;;;10.65;7.93;;;8.60;99.90;;;;;;5056208;28;20534;-69
2021/12/14 10:34:18;;;;;;;13.02;8.90;;;8.70;99.90;;;;;;5057284;28;20227;-69
2021/12/14 10:37:00;;;;;;;11.43;9.15;;;8.80;99.90;;;;;;5056594;28;20226;-69
2021/12/14 10:39:39;;;;;;;10.55;8.60;;;8.80;99.90;;;;;;5056817;28;20211;-69
2021/12/14 10:44:54;;;;;;;13.15;8.60;;;8.80;99.90;;;;;;5044341;28;20234;-69
2021/12/14 10:47:26;;;;;;;11.15;8.40;;;8.90;99.90;;;;;;5056308;28;20639;-69
2021/12/14 10:49:54;;;;;;;13.27;9.00;;;8.80;99.90;;;;;;5056882;28;20523;-69
2021/12/14 10:52:25;;;;;;;12.38;8.77;;;8.90;99.90;;;;;;5057096;28;20306;-69
2021/12/14 10:54:57;;;;;;;11.80;9.25;;;8.90;99.90;;;;;;5056743;28;20194;-69
2021/12/14 10:57:27;;;;;;;12.13;9.07;;;9.00;99.90;;;;;;5056353;28;20502;-69
2021/12/14 10:59:56;;;;;;;14.30;9.70;;;9.10;99.90;;;;;;5056428;28;20187;-69
2021/12/14 11:02:26;;;;;;;12.95;9.30;;;9.20;99.90;;;;;;5056402;28;20237;-70
2021/12/14 11:04:57;;;;;;;12.65;10.07;;;9.20;99.90;;;;;;5056156;28;20184;-69
2021/12/14 11:07:27;;;;;;;14.48;9.40;;;9.20;99.90;;;;;;5056802;28;20203;-69
2021/12/14 11:10:07;;;;;;;14.25;9.73;;;9.20;99.90;;;;;;5056356;28;20215;-69
2021/12/14 11:12:36;;;;;;;13.23;9.27;;;9.20;99.90;;;;;;5056124;28;20305;-69
2021/12/14 11:15:10;;;;;;;13.38;9.63;;;9.20;99.90;;;;;;5056565;28;20199;-69
2021/12/14 11:20:26;;;;;;;15.88;10.75;;;8.90;99.90;;;;;;5056302;28;20206;-69
2021/12/14 11:22:57;;;;;;;13.52;9.60;;;8.80;99.90;;;;;;5056077;28;20318;-69
2021/12/14 11:25:26;;;;;;;16.02;11.40;;;8.70;99.90;;;;;;5055918;28;20570;-69
2021/12/14 11:28:00;;;;;;;14.38;10.00;;;8.50;99.90;;;;;;5056348;28;20204;-69
2021/12/14 11:30:31;;;;;;;12.27;10.32;;;8.60;99.90;;;;;;5056670;28;20208;-70
2021/12/14 11:33:15;;;;;;;14.07;10.40;;;8.70;99.90;;;;;;5055892;28;20247;-69
2021/12/14 11:35:45;;;;;;;13.85;11.32;;;8.60;99.90;;;;;;5056134;28;20234;-69
2021/12/14 11:38:27;;;;;;;12.73;11.00;;;8.70;99.90;;;;;;5056107;28;20618;-69
2021/12/14 11:40:54;;;;;;;16.98;11.27;;;8.50;99.90;;;;;;5056396;28;20199;-69
2021/12/14 11:43:24;;;;;;;14.80;11.10;;;8.40;99.90;;;;;;5054753;28;20690;-69
2021/12/14 11:45:52;;;;;;;16.80;11.88;;;8.50;99.90;;;;;;5055930;28;20286;-69
2021/12/14 11:48:31;;;;;;;13.95;11.02;;;8.70;99.90;;;;;;5055931;28;20211;-69
2021/12/14 11:51:00;;;;;;;13.70;11.00;;;9.00;99.90;;;;;;5056034;28;20203;-69
2021/12/14 11:53:27;;;;;;;14.25;10.80;;;9.20;99.90;;;;;;5055594;28;20223;-69
2021/12/14 11:55:56;;;;;;;13.88;11.02;;;9.30;99.90;;;;;;5055191;28;20226;-69
2021/12/14 11:58:30;;;;;;;13.95;11.82;;;9.40;99.90;;;;;;5055043;28;20207;-69
2021/12/14 12:01:03;;;;;;;13.18;10.23;;;9.30;99.90;;;;;;5055520;28;20211;-69
2021/12/14 12:03:40;;;;;;;13.60;10.75;;;9.40;99.90;;;;;;5054727;28;20223;-69
2021/12/14 12:06:14;;;;;;;13.18;10.60;;;9.40;99.90;;;;;;5054958;28;20254;-69
2021/12/14 12:11:36;;;;;;;14.98;11.40;;;9.60;99.90;;;;;;5055192;28;20218;-69
2021/12/14 12:14:18;;;;;;;17.23;11.43;;;9.70;99.90;;;;;;5054861;28;20219;-69
2021/12/14 12:16:45;;;;;;;15.00;11.80;;;9.70;99.90;;;;;;5054825;28;20207;-69
2021/12/14 12:19:16;;;;;;;16.45;12.20;;;9.70;99.90;;;;;;5054727;28;20200;-69
2021/12/14 12:21:45;;;;;;;16.02;11.68;;;9.60;99.90;;;;;;5054828;28;20195;-69
2021/12/14 12:24:42;;;;;;;13.93;11.85;;;9.70;99.90;;;;;;5054749;28;20223;-69
2021/12/14 12:27:17;;;;;;;15.05;11.52;;;9.70;99.90;;;;;;5054636;28;20209;-69
2021/12/14 12:29:45;;;;;;;16.30;11.90;;;9.30;99.90;;;;;;5054670;28;20590;-69
2021/12/14 12:32:20;;;;;;;14.77;11.95;;;9.10;99.90;;;;;;5054574;28;20199;-69
2021/12/14 12:34:50;;;;;;;14.93;11.20;;;9.10;99.90;;;;;;5054729;28;20199;-69
2021/12/14 12:37:33;;;;;;;15.32;11.90;;;9.10;99.90;;;;;;5054803;28;20210;-69
2021/12/14 12:40:00;;;;;;;18.33;12.15;;;9.00;99.90;;;;;;5054246;28;20226;-69
2021/12/14 12:42:27;;;;;;;15.75;13.30;;;8.90;99.90;;;;;;5054295;28;20220;-69
2021/12/14 12:44:54;;;;;;;16.63;11.73;;;8.90;99.90;;;;;;5054470;28;20203;-69
2021/12/14 12:47:23;;;;;;;17.42;12.48;;;8.90;99.90;;;;;;5054549;28;20210;-69
2021/12/14 12:49:54;;;;;;;17.40;13.73;;;9.00;99.90;;;;;;5054114;28;20293;-69
2021/12/14 12:52:26;;;;;;;15.27;12.13;;;9.00;99.90;;;;;;5053944;28;20732;-69
2021/12/14 12:54:58;;;;;;;15.52;12.35;;;9.20;99.90;;;;;;5053280;28;20198;-69
2021/12/14 12:57:42;;;;;;;18.58;13.30;;;9.30;99.90;;;;;;5054241;28;20207;-69
2021/12/14 13:00:28;;;;;;;16.55;12.98;;;9.40;99.90;;;;;;5053684;28;20650;-69
2021/12/14 13:02:59;;;;;;;16.15;12.90;;;9.40;99.90;;;;;;5053923;28;20234;-69
2021/12/14 13:05:33;;;;;;;16.73;12.45;;;9.40;99.90;;;;;;5053584;28;20203;-69
2021/12/14 13:08:14;;;;;;;14.93;12.25;;;9.30;99.90;;;;;;5054139;28;20209;-69
2021/12/14 13:10:44;;;;;;;16.38;12.90;;;9.30;99.90;;;;;;5053785;28;20239;-69
2021/12/14 13:13:15;;;;;;;16.42;12.52;;;9.40;99.90;;;;;;5053900;28;20219;-69
2021/12/14 13:15:59;;;;;;;14.15;11.95;;;9.40;99.90;;;;;;5053825;28;20293;-69
2021/12/14 13:18:46;;;;;;;15.05;12.10;;;9.40;99.90;;;;;;5054485;28;20207;-69
2021/12/14 13:21:35;;;;;;;15.65;12.57;;;9.30;99.90;;;;;;5054219;28;20289;-69
2021/12/14 13:24:07;;;;;;;16.13;12.80;;;9.20;99.90;;;;;;5053820;28;20223;-69
2021/12/14 13:26:51;;;;;;;16.75;14.05;;;9.00;99.90;;;;;;5054024;28;20207;-69
2021/12/14 13:29:28;;;;;;;15.88;13.23;;;8.80;99.90;;;;;;5054249;28;20203;-69